createdAt,value
2019-04-26T00:00:10.180Z,24.23
2019-04-26T00:02:42.117Z,17.00
2019-04-26T00:05:14.434Z,22.77
2019-04-26T00:07:43.046Z,17.12
2019-04-26T00:10:16.056Z,19.02
2019-04-26T00:12:55.565Z,16.33
2019-04-26T00:15:43.779Z,20.57
2019-04-26T00:18:12.811Z,21.17
2019-04-26T00:20:41.029Z,22.47
2019-04-26T00:23:10.564Z,23.00
2019-04-26T00:25:39.133Z,18.95
2019-04-26T00:28:07.396Z,23.38
2019-04-26T00:30:35.921Z,22.37
2019-04-26T00:33:04.311Z,23.00
2019-04-26T00:35:32.580Z,17.87
2019-04-26T00:38:00.789Z,23.00
2019-04-26T00:40:29.258Z,23.33
2019-04-26T00:42:58.775Z,20.70
2019-04-26T00:45:28.568Z,20.47
2019-04-26T00:47:57.619Z,21.27
2019-04-26T00:50:25.892Z,22.23
2019-04-26T00:52:54.758Z,24.47
2019-04-26T00:55:23.965Z,24.10
2019-04-26T00:57:52.199Z,21.90
2019-04-26T01:00:21.834Z,22.33
2019-04-26T01:02:51.883Z,23.97
2019-04-26T01:05:20.893Z,25.13
2019-04-26T01:07:50.843Z,25.70
2019-04-26T01:10:19.681Z,24.00
2019-04-26T01:12:48.001Z,24.67
2019-04-26T01:15:18.811Z,25.30
2019-04-26T01:17:46.167Z,25.93
2019-04-26T01:20:14.788Z,22.67
2019-04-26T01:22:47.306Z,26.23
2019-04-26T01:25:47.090Z,27.37
2019-04-26T01:28:18.105Z,27.80
2019-04-26T01:30:46.572Z,29.93
2019-04-26T01:33:14.873Z,30.63
2019-04-26T01:35:43.423Z,28.60
2019-04-26T01:38:13.171Z,27.83
2019-04-26T01:40:43.208Z,30.25
2019-04-26T01:43:20.051Z,24.82
2019-04-26T01:46:00.927Z,31.60
2019-04-26T01:51:13.067Z,24.77
2019-04-26T01:53:41.839Z,25.35
2019-04-26T01:56:10.093Z,30.83
2019-04-26T01:58:38.766Z,32.87
2019-04-26T02:01:11.152Z,35.10
2019-04-26T02:03:39.401Z,29.73
2019-04-26T02:06:07.675Z,31.00
2019-04-26T02:08:36.205Z,31.37
2019-04-26T02:11:04.472Z,29.70
2019-04-26T02:13:33.113Z,29.37
2019-04-26T02:16:01.253Z,30.63
2019-04-26T02:18:29.707Z,27.43
2019-04-26T02:21:13.303Z,33.27
2019-04-26T02:23:46.237Z,32.50
2019-04-26T02:26:34.855Z,30.87
2019-04-26T02:29:04.155Z,34.23
2019-04-26T02:31:33.770Z,30.13
2019-04-26T02:34:03.319Z,36.55
2019-04-26T02:36:47.938Z,38.17
2019-04-26T02:39:02.554Z,32.15
2019-04-26T02:41:33.958Z,30.57
2019-04-26T02:44:04.764Z,33.43
2019-04-26T02:46:42.087Z,28.67
2019-04-26T02:49:14.723Z,26.27
2019-04-26T02:51:45.650Z,26.67
2019-04-26T02:54:25.918Z,24.98
2019-04-26T02:56:55.634Z,22.67
2019-04-26T03:01:52.723Z,19.80
2019-04-26T03:04:21.816Z,15.50
2019-04-26T03:07:03.008Z,18.77
2019-04-26T03:11:49.169Z,14.70
2019-04-26T03:14:19.366Z,15.58
2019-04-26T03:19:19.945Z,12.57
2019-04-26T03:21:52.744Z,12.27
2019-04-26T03:24:22.766Z,11.77
2019-04-26T03:26:52.489Z,11.00
2019-04-26T03:31:54.750Z,10.93
2019-04-26T03:34:25.448Z,12.10
2019-04-26T03:37:19.629Z,11.30
2019-04-26T03:39:44.835Z,11.20
2019-04-26T03:42:23.322Z,10.30
2019-04-26T03:45:09.820Z,11.90
2019-04-26T03:47:48.679Z,11.53
2019-04-26T03:50:18.406Z,13.77
2019-04-26T03:52:48.136Z,12.30
2019-04-26T03:55:23.888Z,14.07
2019-04-26T03:58:04.093Z,13.87
2019-04-26T04:03:14.887Z,13.10
2019-04-26T04:05:47.773Z,14.40
2019-04-26T04:08:20.320Z,15.20
2019-04-26T04:10:59.184Z,14.13
2019-04-26T04:13:38.850Z,12.63
2019-04-26T04:16:08.498Z,11.40
2019-04-26T04:18:38.825Z,12.88
2019-04-26T04:21:26.377Z,14.90
2019-04-26T04:23:56.097Z,13.23
2019-04-26T04:26:25.841Z,12.03
2019-04-26T04:29:14.300Z,12.30
2019-04-26T04:31:53.010Z,13.03
2019-04-26T04:37:23.453Z,11.77
2019-04-26T04:39:54.260Z,12.50
2019-04-26T04:42:31.777Z,13.35
2019-04-26T04:45:25.519Z,13.23
2019-04-26T04:47:59.792Z,13.47
2019-04-26T04:53:23.197Z,13.55
2019-04-26T04:55:58.655Z,12.40
2019-04-26T04:58:31.460Z,12.53
2019-04-26T05:01:17.472Z,12.47
2019-04-26T05:04:04.035Z,11.47
2019-04-26T05:06:51.133Z,12.20
2019-04-26T05:09:21.141Z,11.97
2019-04-26T05:11:51.891Z,11.65
2019-04-26T05:14:27.602Z,11.50
2019-04-26T05:17:09.214Z,12.63
2019-04-26T05:19:54.861Z,11.27
2019-04-26T05:22:42.841Z,12.33
2019-04-26T05:25:41.711Z,11.70
2019-04-26T05:28:24.861Z,11.60
2019-04-26T05:31:11.169Z,10.57
2019-04-26T05:33:58.313Z,11.70
2019-04-26T05:36:34.245Z,12.57
2019-04-26T05:39:07.231Z,11.57
2019-04-26T05:41:57.867Z,11.60
2019-04-26T05:44:38.428Z,13.10
2019-04-26T05:47:09.900Z,11.00
2019-04-26T05:49:57.971Z,11.30
2019-04-26T05:52:44.940Z,12.80
2019-04-26T05:55:16.300Z,12.53
2019-04-26T05:57:56.765Z,11.03
2019-04-26T06:00:53.983Z,11.43
2019-04-26T06:03:45.893Z,10.87
2019-04-26T06:06:23.075Z,11.57
2019-04-26T06:09:09.500Z,12.23
2019-04-26T06:11:46.559Z,12.97
2019-04-26T06:14:20.911Z,11.63
2019-04-26T06:16:59.181Z,13.97
2019-04-26T06:19:42.678Z,12.17
2019-04-26T06:22:18.258Z,10.10
2019-04-26T06:24:58.899Z,12.50
2019-04-26T06:27:48.066Z,12.30
2019-04-26T06:30:18.580Z,11.43
2019-04-26T06:33:00.695Z,11.77
2019-04-26T06:35:25.768Z,11.73
2019-04-26T06:38:15.691Z,10.80
2019-04-26T06:40:58.193Z,12.23
2019-04-26T06:43:29.620Z,11.73
2019-04-26T06:46:01.023Z,12.70
2019-04-26T06:48:41.414Z,11.83
2019-04-26T06:51:23.778Z,11.23
2019-04-26T06:53:42.583Z,11.33
2019-04-26T06:56:30.759Z,10.85
2019-04-26T06:59:17.194Z,11.73
2019-04-26T07:01:52.731Z,10.63
2019-04-26T07:04:38.737Z,11.83
2019-04-26T07:07:11.564Z,11.50
2019-04-26T07:10:00.245Z,12.47
2019-04-26T07:12:55.955Z,12.77
2019-04-26T07:15:33.135Z,12.57
2019-04-26T07:18:08.914Z,12.13
2019-04-26T07:20:46.171Z,12.70
2019-04-26T07:23:17.724Z,11.30
2019-04-26T07:26:01.648Z,11.77
2019-04-26T07:28:48.627Z,12.90
2019-04-26T07:31:18.357Z,11.60
2019-04-26T07:33:49.470Z,11.00
2019-04-26T07:36:35.938Z,12.27
2019-04-26T07:39:20.384Z,11.97
2019-04-26T07:42:05.912Z,12.60
2019-04-26T07:44:37.360Z,12.77
2019-04-26T07:47:26.465Z,11.23
2019-04-26T07:50:09.438Z,12.03
2019-04-26T07:52:48.800Z,11.07
2019-04-26T07:55:30.426Z,12.33
